createdAt,value
2022-10-15T00:03:00.233Z,970.21
2022-10-15T00:08:00.118Z,970.17
2022-10-15T00:13:00.167Z,970.16
2022-10-15T00:17:59.998Z,970.17
2022-10-15T00:22:59.930Z,970.07
2022-10-15T00:27:59.897Z,970.00
2022-10-15T00:32:59.808Z,969.99
2022-10-15T00:37:59.738Z,969.92
2022-10-15T00:42:59.672Z,969.85
2022-10-15T00:47:59.596Z,969.80
2022-10-15T00:52:59.577Z,969.84
2022-10-15T00:57:59.514Z,969.76
2022-10-15T01:02:59.422Z,969.72
2022-10-15T01:07:59.343Z,969.65
2022-10-15T01:12:59.283Z,969.59
2022-10-15T01:17:59.214Z,969.59
2022-10-15T01:22:59.184Z,969.60
2022-10-15T01:27:59.073Z,969.42
2022-10-15T01:32:59.023Z,969.36
2022-10-15T01:37:59.005Z,969.32
2022-10-15T01:42:58.914Z,969.26
2022-10-15T01:47:58.830Z,969.22
2022-10-15T01:52:58.758Z,969.24
2022-10-15T01:57:58.717Z,969.15
2022-10-15T02:02:58.642Z,969.16
2022-10-15T02:07:58.649Z,969.08
2022-10-15T02:12:58.521Z,968.99
2022-10-15T02:17:58.430Z,968.93
2022-10-15T02:22:58.376Z,968.91
2022-10-15T02:27:58.300Z,968.91
2022-10-15T02:32:58.291Z,968.86
2022-10-15T02:37:58.164Z,968.88
2022-10-15T02:42:58.113Z,968.84
2022-10-15T02:47:58.069Z,968.73
2022-10-15T02:52:57.993Z,968.74
2022-10-15T02:57:57.923Z,968.76
2022-10-15T03:02:57.863Z,968.70
2022-10-15T03:07:57.844Z,968.58
2022-10-15T03:12:57.739Z,968.52
2022-10-15T03:17:57.644Z,968.49
2022-10-15T03:22:57.599Z,968.45
2022-10-15T03:27:57.529Z,968.35
2022-10-15T03:32:57.467Z,968.33
2022-10-15T03:37:57.397Z,968.32
2022-10-15T03:42:57.359Z,968.35
2022-10-15T03:47:57.260Z,968.26
2022-10-15T03:52:57.237Z,968.16
2022-10-15T03:57:57.142Z,968.24
2022-10-15T04:02:57.078Z,968.22
2022-10-15T04:07:57.031Z,968.14
2022-10-15T04:12:56.952Z,968.21
2022-10-15T04:17:56.897Z,968.24
2022-10-15T04:22:56.833Z,968.16
2022-10-15T04:27:56.782Z,968.23
2022-10-15T04:32:56.694Z,968.20
2022-10-15T04:37:56.639Z,968.25
2022-10-15T04:42:56.575Z,968.22
2022-10-15T04:47:56.476Z,968.30
2022-10-15T04:52:56.435Z,968.29
2022-10-15T04:57:56.365Z,968.21
2022-10-15T05:02:56.371Z,968.13
2022-10-15T05:07:56.248Z,968.14
2022-10-15T05:12:57.004Z,968.13
2022-10-15T05:17:56.109Z,968.04
2022-10-15T05:22:56.054Z,968.01
2022-10-15T05:27:55.982Z,968.01
2022-10-15T05:32:55.969Z,968.07
2022-10-15T05:37:55.862Z,968.10
2022-10-15T05:42:55.866Z,968.13
2022-10-15T05:47:55.725Z,968.19
2022-10-15T05:52:55.665Z,968.19
2022-10-15T05:57:55.583Z,968.15
2022-10-15T06:02:55.586Z,968.30
2022-10-15T06:07:55.463Z,968.34
2022-10-15T06:12:55.407Z,968.33
2022-10-15T06:17:55.322Z,968.38
2022-10-15T06:22:55.266Z,968.48
2022-10-15T06:27:55.228Z,968.54
2022-10-15T06:32:55.146Z,968.65
2022-10-15T06:37:58.081Z,968.67
2022-10-15T06:42:56.043Z,968.71
2022-10-15T06:47:54.938Z,968.81
2022-10-15T06:52:54.947Z,968.91
2022-10-15T06:57:54.848Z,968.98
2022-10-15T07:02:54.740Z,969.05
2022-10-15T07:07:54.691Z,969.08
2022-10-15T07:12:54.634Z,969.17
2022-10-15T07:17:54.572Z,969.19
2022-10-15T07:22:54.509Z,969.21
2022-10-15T07:27:54.433Z,969.29
2022-10-15T07:32:54.383Z,969.25
2022-10-15T07:37:54.333Z,969.28
2022-10-15T07:42:54.251Z,969.34
2022-10-15T07:47:54.245Z,969.37
2022-10-15T07:52:54.154Z,969.41
2022-10-15T07:57:54.087Z,969.40
2022-10-15T08:02:54.036Z,969.45
2022-10-15T08:07:53.957Z,969.50
2022-10-15T08:12:53.908Z,969.53
2022-10-15T08:17:53.817Z,969.55
2022-10-15T08:22:53.792Z,969.61
2022-10-15T08:27:53.701Z,969.68
2022-10-15T08:32:53.637Z,969.62
2022-10-15T08:37:53.579Z,969.74
2022-10-15T08:42:53.529Z,969.81
2022-10-15T08:47:53.449Z,969.84
2022-10-15T08:52:53.399Z,969.88
2022-10-15T08:57:53.333Z,969.93
2022-10-15T09:02:53.305Z,969.92
2022-10-15T09:07:54.494Z,969.96
2022-10-15T09:12:53.176Z,970.05
2022-10-15T09:17:53.075Z,970.04
2022-10-15T09:22:53.039Z,970.07
2022-10-15T09:27:52.965Z,970.14
2022-10-15T09:32:54.585Z,970.18
2022-10-15T09:37:52.840Z,970.24
2022-10-15T09:42:52.768Z,970.25
2022-10-15T09:47:52.743Z,970.29
2022-10-15T09:52:52.649Z,970.36
2022-10-15T09:57:52.581Z,970.37
2022-10-15T10:02:52.530Z,970.43
2022-10-15T10:07:52.442Z,970.45
2022-10-15T10:12:52.393Z,970.49
2022-10-15T10:17:52.379Z,970.59
2022-10-15T10:22:52.262Z,970.58
2022-10-15T10:27:52.185Z,970.59
2022-10-15T10:32:52.126Z,970.62
2022-10-15T10:37:52.095Z,970.65
2022-10-15T10:42:52.001Z,970.74
2022-10-15T10:47:51.927Z,970.71
2022-10-15T10:52:51.877Z,970.74
2022-10-15T10:57:51.793Z,970.83
2022-10-15T11:02:51.739Z,970.78
2022-10-15T11:07:51.689Z,970.79
2022-10-15T11:12:51.630Z,970.86
2022-10-15T11:17:51.563Z,970.83
2022-10-15T11:22:51.501Z,970.80
2022-10-15T11:27:51.410Z,970.75
2022-10-15T11:33:08.456Z,970.74
2022-10-15T11:37:52.285Z,970.77
2022-10-15T11:42:51.245Z,970.72
2022-10-15T11:47:51.206Z,970.70
2022-10-15T11:52:51.118Z,970.71
2022-10-15T11:57:51.051Z,970.68
2022-10-15T12:02:50.979Z,970.71
2022-10-15T12:07:50.908Z,970.69
2022-10-15T12:12:50.850Z,970.70
2022-10-15T12:17:50.804Z,970.73
2022-10-15T12:22:50.717Z,970.74
2022-10-15T12:27:50.652Z,970.71
2022-10-15T12:32:50.602Z,970.74
2022-10-15T12:37:50.522Z,970.72
2022-10-15T12:42:50.462Z,970.71
2022-10-15T12:47:50.395Z,970.65
2022-10-15T12:52:50.350Z,970.65
2022-10-15T12:57:50.276Z,970.64
2022-10-15T13:02:50.197Z,970.60
2022-10-15T13:07:50.157Z,970.62
2022-10-15T13:12:50.089Z,970.69
2022-10-15T13:17:50.070Z,970.70
2022-10-15T13:22:55.233Z,970.72
2022-10-15T13:27:50.880Z,970.75
2022-10-15T13:32:49.835Z,970.72
2022-10-15T13:37:49.752Z,970.75
2022-10-15T13:42:49.683Z,970.75
2022-10-15T13:47:49.634Z,970.75
2022-10-15T13:52:49.566Z,970.79
2022-10-15T13:57:49.499Z,970.85
2022-10-15T14:02:49.416Z,970.88
2022-10-15T14:07:49.377Z,970.83
2022-10-15T14:12:49.333Z,970.95
2022-10-15T14:17:49.259Z,970.88
2022-10-15T14:22:49.188Z,970.97
2022-10-15T14:27:49.109Z,971.02
2022-10-15T14:32:49.063Z,971.02
2022-10-15T14:37:49.012Z,971.06
2022-10-15T14:42:48.935Z,971.04
2022-10-15T14:47:48.862Z,971.09
2022-10-15T14:52:48.796Z,971.21
2022-10-15T14:57:48.735Z,971.26
2022-10-15T15:02:48.752Z,971.19
2022-10-15T15:07:48.606Z,971.21
2022-10-15T15:12:48.530Z,971.30
2022-10-15T15:17:48.492Z,971.23
2022-10-15T15:22:48.417Z,971.24
2022-10-15T15:27:48.376Z,971.24
2022-10-15T15:32:48.280Z,971.31
2022-10-15T15:37:48.260Z,971.26
2022-10-15T15:42:48.165Z,971.28
2022-10-15T15:47:48.110Z,971.35
2022-10-15T15:52:48.093Z,971.28
2022-10-15T15:57:47.982Z,971.36
2022-10-15T16:02:47.903Z,971.43
2022-10-15T16:07:47.845Z,971.53
2022-10-15T16:12:47.794Z,971.47
2022-10-15T16:17:47.716Z,971.46
2022-10-15T16:22:47.647Z,971.44
2022-10-15T16:27:47.608Z,971.53
2022-10-15T16:32:47.527Z,971.57
2022-10-15T16:37:47.484Z,971.68
2022-10-15T16:42:47.423Z,971.77
2022-10-15T16:47:47.358Z,971.92
2022-10-15T16:52:47.281Z,971.91
2022-10-15T16:57:47.238Z,971.92
2022-10-15T17:02:47.142Z,971.98
2022-10-15T17:07:47.081Z,972.04
2022-10-15T17:12:47.035Z,972.04
2022-10-15T17:17:46.965Z,972.10
2022-10-15T17:22:46.915Z,972.18
2022-10-15T17:27:46.827Z,972.21
2022-10-15T17:32:46.786Z,972.28
2022-10-15T17:37:46.739Z,972.39
2022-10-15T17:42:46.628Z,972.45
2022-10-15T17:47:46.592Z,972.46
2022-10-15T17:52:46.509Z,972.53
2022-10-15T17:57:46.460Z,972.61
2022-10-15T18:02:46.441Z,972.58
2022-10-15T18:07:46.331Z,972.66
2022-10-15T18:12:46.244Z,972.58
2022-10-15T18:17:46.207Z,972.60
2022-10-15T18:22:46.125Z,972.59
2022-10-15T18:27:46.064Z,972.68
2022-10-15T18:32:45.987Z,972.65
2022-10-15T18:37:45.932Z,972.69
2022-10-15T18:42:47.743Z,972.68
2022-10-15T18:47:45.796Z,972.82
2022-10-15T18:52:46.076Z,972.78
2022-10-15T18:57:45.696Z,972.84
2022-10-15T19:02:45.597Z,972.86
2022-10-15T19:07:45.544Z,972.87
2022-10-15T19:12:45.501Z,972.88
2022-10-15T19:17:45.399Z,972.94
2022-10-15T19:22:45.348Z,972.97
2022-10-15T19:27:45.270Z,972.99
2022-10-15T19:32:45.219Z,973.14
2022-10-15T19:37:45.136Z,973.17
2022-10-15T19:42:45.078Z,973.20
2022-10-15T19:47:45.034Z,973.23
2022-10-15T19:52:44.967Z,973.31
2022-10-15T19:57:44.885Z,973.30
2022-10-15T20:02:44.820Z,973.24
2022-10-15T20:07:44.748Z,973.20
2022-10-15T20:17:44.638Z,973.31
2022-10-15T20:22:44.565Z,973.38
2022-10-15T20:27:44.498Z,973.46
2022-10-15T20:32:44.432Z,973.40
2022-10-15T20:37:44.379Z,973.46
2022-10-15T20:42:44.310Z,973.53
2022-10-15T20:47:44.232Z,973.51
2022-10-15T20:52:44.162Z,973.59
2022-10-15T20:57:44.104Z,973.62
2022-10-15T21:02:44.043Z,973.66
2022-10-15T21:07:43.974Z,973.74
2022-10-15T21:12:43.904Z,973.88
2022-10-15T21:17:43.837Z,973.92
2022-10-15T21:22:43.773Z,973.96
2022-10-15T21:27:43.706Z,973.98
2022-10-15T21:32:43.647Z,973.96
2022-10-15T21:37:43.586Z,973.86
2022-10-15T21:42:43.507Z,973.95
2022-10-15T21:47:43.446Z,973.93
2022-10-15T21:52:43.379Z,973.98
2022-10-15T21:57:43.327Z,974.12
2022-10-15T22:02:43.291Z,974.21
2022-10-15T22:07:43.238Z,974.21
2022-10-15T22:12:43.149Z,974.25
2022-10-15T22:17:43.053Z,974.24
2022-10-15T22:22:42.994Z,974.20
2022-10-15T22:27:42.929Z,974.26
2022-10-15T22:32:42.894Z,974.34
2022-10-15T22:37:42.801Z,974.45
2022-10-15T22:42:42.736Z,974.55
2022-10-15T22:47:42.665Z,974.57
2022-10-15T22:52:42.608Z,974.60
2022-10-15T22:57:42.548Z,974.56
2022-10-15T23:02:42.480Z,974.53
2022-10-15T23:07:42.409Z,974.53
2022-10-15T23:12:42.380Z,974.57
2022-10-15T23:17:42.290Z,974.61
2022-10-15T23:22:42.250Z,974.66
2022-10-15T23:27:42.156Z,974.63
2022-10-15T23:32:42.133Z,974.69
2022-10-15T23:37:42.048Z,974.66
2022-10-15T23:42:41.964Z,974.65
2022-10-15T23:47:41.902Z,974.60
2022-10-15T23:52:41.844Z,974.65
2022-10-15T23:57:41.766Z,974.67
